Effie, Minnesota
Current Conditions -  °F | °C
As of 5:13 AM on Thursday 18 Dec 2014 (Local Time) from KORB Reporting Station
Overcast Overcast  
Wind Chill:   Ceiling: 900
Heat Index:   Visibility: 10mi
Dew Point:   Wind: 0mph
Humidity: 85%   Direction: NA
Pressure: 30.26"   Gusts: NA
Location:  47.84°N, 93.64°W
Report Text: KORB 181113Z AUTO 00000KT 10SM OVC009 M13/M15 A3026 RMK AO2
Loading
Personal Weather Stations






























Interactive Weather Map New forecast layout! Learn more

10-Day Weather Forecast

Advertisements
Track Severe Weather on mobile